Emerald Isle, North Carolina
Current Conditions -  °F | °C
As of 8:57 AM on Saturday 22 Nov 2014 (Local Time) from KNJM Reporting Station
Clear Clear  
Wind Chill: 37°   Ceiling: Unl
Heat Index: 43°   Visibility: 10mi
Dew Point: 29°   Wind: 10mph
Humidity: 58%   Direction: 40°NE
Pressure: 30.58"   Gusts: NA
Location:  34.68°N, 76.95°W
Report Text: KNJM 221357Z AUTO 04009KT 10SM CLR 06/M02 A3058 RMK AO2 SLP359 T00611017
Loading
Personal Weather Stations






























Interactive Weather Map New forecast layout! Learn more

10-Day Weather Forecast

Advertisements
Track Severe Weather on mobile